Time;durP1;ratioP1;P1;durP2;ratioP2;P2;SDS_P1;SDS_P2;PMS_P1;PMS_P2;Temp;Humidity;BMP_temperature;BMP_pressure;BME280_temperature;BME280_humidity;BME280_pressure;Samples;Min_cycle;Max_cycle;Signal;HPM_P1;HPM_P2
2022/05/09 00:01:57;;;;;;;2.58;1.50;;;21.80;44.40;;;;;;5073097;28;20024;-57
2022/05/09 00:04:24;;;;;;;3.83;1.65;;;21.80;44.40;;;;;;5073375;28;20047;-57
2022/05/09 00:06:51;;;;;;;3.47;1.92;;;21.80;44.40;;;;;;5073280;28;20082;-56
2022/05/09 00:09:17;;;;;;;3.72;1.65;;;21.70;44.40;;;;;;5072972;28;20543;-57
2022/05/09 00:11:43;;;;;;;7.57;1.92;;;21.70;44.40;;;;;;5072629;28;20013;-57
2022/05/09 00:14:10;;;;;;;4.40;1.45;;;21.70;44.40;;;;;;5074648;28;20093;-59
2022/05/09 00:16:37;;;;;;;2.58;1.63;;;21.70;44.40;;;;;;5077296;28;20013;-58
2022/05/09 00:19:05;;;;;;;3.22;1.70;;;21.70;44.40;;;;;;5077049;28;20009;-59
2022/05/09 00:21:34;;;;;;;5.15;1.95;;;21.70;44.40;;;;;;5076590;28;20037;-59
2022/05/09 00:24:01;;;;;;;5.10;1.40;;;21.70;44.50;;;;;;5075813;28;20066;-58
2022/05/09 00:26:33;;;;;;;4.00;1.73;;;21.70;44.50;;;;;;5075290;28;20016;-58
2022/05/09 00:28:59;;;;;;;4.38;2.03;;;21.70;44.50;;;;;;5073592;28;20027;-57
2022/05/09 00:31:25;;;;;;;2.65;1.75;;;21.70;44.50;;;;;;5072795;28;20024;-58
2022/05/09 00:33:51;;;;;;;2.88;1.60;;;21.70;44.50;;;;;;5072918;28;20039;-57
2022/05/09 00:36:18;;;;;;;4.07;1.92;;;21.70;44.60;;;;;;5072889;28;20013;-57
2022/05/09 00:38:44;;;;;;;4.57;1.80;;;21.70;44.60;;;;;;5072928;28;20016;-57
2022/05/09 00:41:29;;;;;;;3.92;1.80;;;21.70;44.60;;;;;;5072789;28;20092;-57
2022/05/09 00:43:55;;;;;;;4.05;1.85;;;21.60;44.60;;;;;;5074094;28;20035;-58
2022/05/09 00:46:22;;;;;;;2.90;1.60;;;21.60;44.60;;;;;;5075217;28;20013;-56
2022/05/09 00:48:48;;;;;;;2.50;1.60;;;21.70;44.60;;;;;;5074313;28;20464;-58
2022/05/09 00:51:23;;;;;;;2.58;1.52;;;21.60;44.60;;;;;;5074058;28;20033;-57
2022/05/09 00:53:49;;;;;;;3.58;1.88;;;21.60;44.60;;;;;;5058032;28;20025;-59
2022/05/09 00:56:24;;;;;;;2.72;1.52;;;21.60;44.60;;;;;;5058991;28;20015;-58
2022/05/09 00:58:59;;;;;;;3.75;1.67;;;21.60;44.60;;;;;;5074749;28;20016;-58
2022/05/09 01:01:25;;;;;;;3.50;1.90;;;21.60;44.60;;;;;;5075249;28;20070;-59
2022/05/09 01:03:54;;;;;;;4.22;1.98;;;21.60;44.60;;;;;;5076030;28;20086;-57
2022/05/09 01:06:21;;;;;;;3.65;1.60;;;21.60;44.70;;;;;;5076662;28;20050;-59
2022/05/09 01:08:47;;;;;;;3.08;1.80;;;21.60;44.70;;;;;;5076775;28;20016;-59
2022/05/09 01:11:20;;;;;;;2.67;1.70;;;21.60;44.70;;;;;;5076191;28;20028;-59
2022/05/09 01:13:46;;;;;;;3.33;1.67;;;21.60;44.70;;;;;;5075659;28;20024;-58
2022/05/09 01:16:13;;;;;;;3.17;2.03;;;21.60;44.70;;;;;;5075615;28;20021;-59
2022/05/09 01:18:39;;;;;;;4.47;2.00;;;21.60;44.70;;;;;;5074724;28;20088;-59
2022/05/09 01:21:42;;;;;;;2.47;1.50;;;21.60;44.70;;;;;;5075605;28;20467;-58
2022/05/09 01:24:16;;;;;;;3.42;1.60;;;21.50;44.70;;;;;;5074352;28;20090;-58
2022/05/09 01:26:42;;;;;;;2.60;1.52;;;21.50;44.70;;;;;;5079070;28;20008;-58
2022/05/09 01:29:16;;;;;;;2.42;1.52;;;21.50;45.20;;;;;;5077236;28;20078;-57
2022/05/09 01:31:41;;;;;;;3.45;1.65;;;21.50;44.70;;;;;;5076269;28;20032;-57
2022/05/09 01:34:09;;;;;;;2.42;1.70;;;21.50;44.70;;;;;;5074740;28;20036;-57
2022/05/09 01:36:35;;;;;;;2.53;1.70;;;21.50;44.70;;;;;;5074997;28;20031;-57
2022/05/09 01:39:06;;;;;;;2.38;1.42;;;21.50;44.80;;;;;;5075876;28;20021;-57
2022/05/09 01:41:37;;;;;;;2.80;1.60;;;21.50;44.80;;;;;;5076204;28;20021;-57
2022/05/09 01:44:05;;;;;;;3.47;1.67;;;21.50;44.80;;;;;;5076435;28;20087;-58
2022/05/09 01:46:31;;;;;;;2.40;1.50;;;21.50;44.80;;;;;;5076528;28;20025;-56
2022/05/09 01:51:43;;;;;;;3.03;1.70;;;21.50;44.80;;;;;;5077079;28;20093;-59
2022/05/09 01:54:09;;;;;;;3.20;1.90;;;21.40;44.70;;;;;;5077646;28;20032;-59
2022/05/09 01:56:37;;;;;;;3.92;1.75;;;21.40;44.70;;;;;;5078864;28;20043;-58
2022/05/09 01:59:04;;;;;;;5.72;1.90;;;21.40;44.70;;;;;;5077217;28;20009;-58
2022/05/09 02:01:37;;;;;;;3.22;1.90;;;21.40;44.70;;;;;;5077149;28;20016;-60
2022/05/09 02:04:03;;;;;;;3.78;1.83;;;21.50;44.80;;;;;;5076117;28;20096;-59
2022/05/09 02:06:29;;;;;;;4.93;1.90;;;21.40;44.70;;;;;;5075538;28;20027;-59
2022/05/09 02:08:56;;;;;;;4.78;1.80;;;21.40;44.80;;;;;;5076989;28;20017;-59
2022/05/09 02:11:23;;;;;;;4.03;1.90;;;21.40;44.80;;;;;;5076564;28;20021;-59
2022/05/09 02:13:49;;;;;;;2.88;1.88;;;21.40;44.80;;;;;;5092092;28;20055;-60
2022/05/09 02:16:15;;;;;;;3.90;1.85;;;21.40;44.80;;;;;;5076549;28;20012;-59
2022/05/09 02:18:41;;;;;;;2.88;1.77;;;21.40;44.80;;;;;;5076691;28;20059;-59
2022/05/09 02:21:07;;;;;;;2.75;1.52;;;21.40;44.80;;;;;;5076997;28;20015;-59
2022/05/09 02:23:34;;;;;;;4.03;2.20;;;21.40;44.80;;;;;;5077650;28;20036;-59
2022/05/09 02:26:02;;;;;;;3.83;1.85;;;21.40;44.80;;;;;;5077259;28;20049;-59
2022/05/09 02:28:28;;;;;;;3.58;1.92;;;21.40;44.90;;;;;;5077045;28;20020;-59
2022/05/09 02:30:55;;;;;;;4.15;1.80;;;21.40;44.80;;;;;;5077999;28;20418;-59
2022/05/09 02:33:21;;;;;;;3.05;1.77;;;21.40;44.80;;;;;;5077926;28;20028;-59
2022/05/09 02:35:47;;;;;;;2.33;1.67;;;21.40;44.80;;;;;;5076872;28;20012;-59
2022/05/09 02:38:13;;;;;;;4.45;2.00;;;21.40;44.80;;;;;;5077985;28;20106;-59
2022/05/09 02:40:40;;;;;;;3.53;1.90;;;21.40;44.80;;;;;;5093007;28;20021;-58
2022/05/09 02:43:06;;;;;;;3.72;1.98;;;21.40;44.80;;;;;;5077266;28;20016;-59
2022/05/09 02:45:32;;;;;;;4.28;2.05;;;21.30;44.80;;;;;;5078093;28;20025;-59
2022/05/09 02:47:58;;;;;;;7.43;1.90;;;21.40;44.80;;;;;;5078908;28;20013;-59
2022/05/09 02:50:25;;;;;;;3.28;1.88;;;21.40;44.80;;;;;;5077941;28;20020;-59
2022/05/09 02:52:51;;;;;;;2.80;1.73;;;21.30;44.80;;;;;;5078480;28;20433;-59
2022/05/09 02:55:17;;;;;;;4.20;2.00;;;21.30;44.80;;;;;;5079567;28;20044;-58
2022/05/09 02:57:44;;;;;;;3.40;2.00;;;21.30;44.80;;;;;;5078091;28;20526;-59
2022/05/09 03:00:13;;;;;;;4.85;2.28;;;21.30;44.80;;;;;;5074795;28;20066;-58
2022/05/09 03:02:39;;;;;;;3.03;1.60;;;21.30;44.80;;;;;;5074454;28;20044;-58
2022/05/09 03:05:07;;;;;;;3.63;1.90;;;21.30;44.80;;;;;;5074732;28;20021;-59
2022/05/09 03:07:33;;;;;;;2.88;1.70;;;21.30;44.80;;;;;;5074854;28;20035;-58
2022/05/09 03:09:59;;;;;;;3.40;1.77;;;21.30;44.80;;;;;;5074798;28;20101;-59
2022/05/09 03:12:26;;;;;;;6.25;2.42;;;21.30;44.80;;;;;;5074664;28;20016;-58
2022/05/09 03:14:52;;;;;;;4.22;2.03;;;21.30;45.10;;;;;;5091246;28;20052;-60
2022/05/09 03:17:18;;;;;;;7.22;2.28;;;21.30;44.80;;;;;;5075396;28;20016;-59
2022/05/09 03:19:44;;;;;;;2.63;1.80;;;21.30;44.80;;;;;;5075142;28;20025;-59
2022/05/09 03:22:10;;;;;;;3.67;2.10;;;21.30;44.80;;;;;;5075349;28;20066;-59
2022/05/09 03:24:36;;;;;;;3.55;1.70;;;21.30;44.80;;;;;;5075258;28;20029;-59
2022/05/09 03:27:03;;;;;;;5.65;2.05;;;21.30;44.90;;;;;;5075596;28;20382;-59
2022/05/09 03:29:29;;;;;;;2.67;1.80;;;21.30;44.80;;;;;;5074251;28;20031;-58
2022/05/09 03:31:55;;;;;;;3.63;1.77;;;21.20;44.80;;;;;;5074363;28;20047;-60
2022/05/09 03:34:21;;;;;;;5.00;1.80;;;21.20;44.80;;;;;;5074039;28;20052;-58
2022/05/09 03:36:47;;;;;;;3.83;1.90;;;21.20;44.80;;;;;;5072751;28;20019;-59
2022/05/09 03:39:13;;;;;;;9.02;2.10;;;21.20;44.80;;;;;;5073946;28;20035;-59
2022/05/09 03:41:39;;;;;;;3.63;2.00;;;21.20;44.80;;;;;;5074000;28;20058;-58
2022/05/09 03:44:05;;;;;;;5.80;2.08;;;21.30;44.80;;;;;;5072613;28;20032;-58
2022/05/09 03:46:31;;;;;;;3.20;1.80;;;21.20;44.80;;;;;;5073891;28;20070;-57
2022/05/09 03:48:57;;;;;;;3.92;1.90;;;21.20;44.80;;;;;;5073983;28;20013;-59
2022/05/09 03:51:23;;;;;;;3.40;1.77;;;21.20;44.80;;;;;;5074073;28;20514;-58
2022/05/09 03:53:50;;;;;;;3.95;2.17;;;21.20;44.90;;;;;;5073927;28;20029;-59
2022/05/09 03:56:16;;;;;;;6.78;2.05;;;21.20;44.90;;;;;;5073498;28;20013;-59
2022/05/09 03:58:42;;;;;;;5.18;2.20;;;21.20;44.90;;;;;;5074250;28;20552;-59
2022/05/09 04:01:11;;;;;;;3.53;1.70;;;21.20;44.90;;;;;;5058208;28;20521;-59
2022/05/09 04:03:38;;;;;;;3.92;1.80;;;21.20;44.90;;;;;;5076363;28;20021;-59
2022/05/09 04:06:04;;;;;;;4.38;1.80;;;21.20;44.90;;;;;;5075655;28;20588;-60
2022/05/09 04:08:30;;;;;;;6.43;2.05;;;21.20;44.90;;;;;;5075447;28;20020;-60
2022/05/09 04:10:56;;;;;;;3.40;1.60;;;21.20;44.90;;;;;;5075388;28;20039;-59
2022/05/09 04:13:23;;;;;;;4.38;2.00;;;21.20;44.80;;;;;;5074318;28;20024;-59
2022/05/09 04:18:38;;;;;;;4.65;2.35;;;21.20;44.80;;;;;;5071888;28;20035;-58
2022/05/09 04:21:05;;;;;;;3.83;1.80;;;21.20;44.80;;;;;;5072830;28;20082;-58
2022/05/09 04:23:33;;;;;;;3.15;1.85;;;21.20;44.80;;;;;;5073100;28;20028;-56
2022/05/09 04:25:59;;;;;;;3.50;1.83;;;21.10;45.30;;;;;;5073126;28;20024;-58
2022/05/09 04:28:26;;;;;;;3.30;1.90;;;21.10;44.80;;;;;;5073177;28;20039;-58
2022/05/09 04:30:52;;;;;;;4.38;1.95;;;21.10;44.70;;;;;;5072885;28;20035;-58
2022/05/09 04:33:18;;;;;;;3.28;1.80;;;21.20;44.80;;;;;;5072881;28;20029;-58
2022/05/09 04:35:44;;;;;;;5.68;1.98;;;21.20;44.80;;;;;;5073246;28;20032;-57
2022/05/09 04:38:21;;;;;;;4.05;1.90;;;21.10;44.70;;;;;;5073000;28;20464;-59
2022/05/09 04:40:51;;;;;;;3.45;1.80;;;21.10;44.70;;;;;;5073502;28;20017;-57
2022/05/09 04:43:18;;;;;;;4.65;2.33;;;21.10;44.70;;;;;;5073342;28;20021;-58
2022/05/09 04:45:44;;;;;;;3.10;1.52;;;21.10;44.70;;;;;;5075985;28;20017;-58
2022/05/09 04:48:11;;;;;;;2.80;1.70;;;21.10;44.70;;;;;;5076033;28;20086;-59
2022/05/09 04:50:37;;;;;;;3.33;2.00;;;21.10;44.70;;;;;;5090795;28;20027;-58
2022/05/09 04:53:04;;;;;;;4.60;1.98;;;21.10;44.70;;;;;;5075090;28;20016;-58
2022/05/09 04:55:30;;;;;;;2.53;1.63;;;21.10;44.70;;;;;;5075108;28;20023;-57
2022/05/09 04:57:56;;;;;;;3.42;2.10;;;21.10;44.70;;;;;;5075126;28;20013;-59
2022/05/09 05:00:27;;;;;;;4.82;2.15;;;21.10;44.70;;;;;;5075993;28;20036;-60
2022/05/09 05:02:54;;;;;;;3.80;1.80;;;21.10;44.70;;;;;;5077056;28;20475;-58
2022/05/09 05:05:20;;;;;;;3.45;1.73;;;21.10;44.70;;;;;;5077394;28;20017;-59
2022/05/09 05:07:48;;;;;;;4.20;1.75;;;21.10;44.70;;;;;;5076881;28;20097;-58
2022/05/09 05:10:14;;;;;;;3.42;1.95;;;21.10;44.70;;;;;;5077329;28;20166;-58
2022/05/09 05:12:39;;;;;;;5.40;2.08;;;21.10;44.70;;;;;;5077481;28;20054;-58
2022/05/09 05:15:09;;;;;;;6.22;1.80;;;21.10;44.70;;;;;;5076107;28;20025;-59
2022/05/09 05:17:37;;;;;;;2.70;1.77;;;21.20;44.80;;;;;;5077334;28;20099;-58
2022/05/09 05:20:05;;;;;;;3.80;1.63;;;21.30;44.50;;;;;;5077426;28;20013;-58
2022/05/09 05:22:34;;;;;;;3.35;1.80;;;21.30;44.30;;;;;;5077068;28;20044;-58
2022/05/09 05:25:00;;;;;;;5.43;2.20;;;21.40;44.30;;;;;;5075862;28;20019;-58
2022/05/09 05:27:25;;;;;;;3.72;1.95;;;21.40;44.10;;;;;;5092649;28;20020;-58
2022/05/09 05:29:56;;;;;;;4.32;1.80;;;21.50;44.00;;;;;;5075295;28;20017;-57
2022/05/09 05:32:24;;;;;;;5.03;2.00;;;21.50;43.90;;;;;;5076696;28;20386;-59
2022/05/09 05:34:51;;;;;;;3.47;1.73;;;21.50;43.80;;;;;;5076838;28;20016;-58
2022/05/09 05:37:17;;;;;;;4.50;1.95;;;21.60;43.70;;;;;;5076277;28;20364;-58
2022/05/09 05:39:44;;;;;;;3.42;1.90;;;21.70;43.50;;;;;;5076312;28;20013;-59
2022/05/09 05:42:10;;;;;;;3.72;1.95;;;21.70;43.50;;;;;;5076154;28;20013;-59
2022/05/09 05:44:39;;;;;;;8.60;2.10;;;21.70;43.60;;;;;;5075796;28;20375;-58
2022/05/09 05:47:09;;;;;;;2.65;1.67;;;21.70;43.50;;;;;;5076532;28;20020;-58
2022/05/09 05:49:42;;;;;;;3.10;1.60;;;21.60;43.60;;;;;;5075936;28;20043;-58
2022/05/09 05:52:09;;;;;;;4.28;1.73;;;21.70;43.60;;;;;;5075200;28;20097;-58
2022/05/09 05:54:36;;;;;;;4.05;1.90;;;21.60;43.60;;;;;;5074689;28;20499;-57
2022/05/09 05:57:03;;;;;;;6.20;1.95;;;21.70;43.60;;;;;;5075616;28;20016;-57
2022/05/09 05:59:30;;;;;;;4.43;1.90;;;21.70;43.50;;;;;;5075136;28;20021;-59
2022/05/09 06:01:56;;;;;;;7.60;2.30;;;21.80;43.20;;;;;;5074056;28;20013;-58
2022/05/09 06:04:21;;;;;;;3.65;2.33;;;21.80;42.60;;;;;;5074772;28;20382;-59
2022/05/09 06:06:48;;;;;;;10.32;4.45;;;21.80;42.10;;;;;;5074456;28;20499;-59
2022/05/09 06:09:14;;;;;;;8.40;4.10;;;21.40;40.80;;;;;;5074865;28;20016;-60
2022/05/09 06:11:40;;;;;;;19.63;4.65;;;20.60;40.90;;;;;;5055260;28;20394;-60
2022/05/09 06:14:08;;;;;;;13.50;5.05;;;20.10;42.10;;;;;;5074096;28;20024;-60
2022/05/09 06:16:37;;;;;;;19.52;5.18;;;20.00;42.30;;;;;;5074156;28;20019;-61
2022/05/09 06:19:05;;;;;;;15.23;5.10;;;19.80;42.70;;;;;;5073344;28;20210;-60
2022/05/09 06:21:34;;;;;;;24.63;5.43;;;19.80;43.00;;;;;;5071565;28;20043;-59
2022/05/09 06:24:04;;;;;;;31.10;6.35;;;19.90;44.20;;;;;;5073164;28;20035;-58
2022/05/09 06:26:31;;;;;;;29.25;6.00;;;20.00;44.70;;;;;;5072179;28;20097;-58
2022/05/09 06:28:57;;;;;;;48.88;11.38;;;20.10;43.90;;;;;;5073673;28;20135;-58
2022/05/09 06:31:24;;;;;;;39.83;8.38;;;20.20;44.00;;;;;;5073841;28;20033;-58
2022/05/09 06:33:49;;;;;;;21.30;7.18;;;20.30;44.10;;;;;;5072018;28;20123;-59
2022/05/09 06:36:15;;;;;;;22.38;5.75;;;20.20;43.40;;;;;;5071620;28;20559;-61
2022/05/09 06:38:41;;;;;;;16.00;5.50;;;20.10;43.10;;;;;;5072935;28;20076;-60
2022/05/09 06:41:10;;;;;;;12.20;4.63;;;19.80;43.60;;;;;;5072947;28;20036;-60
2022/05/09 06:43:36;;;;;;;21.38;5.13;;;19.90;43.60;;;;;;5073035;28;20017;-59
2022/05/09 06:46:02;;;;;;;16.70;4.65;;;20.00;44.00;;;;;;5073108;28;20039;-60
2022/05/09 06:48:29;;;;;;;13.23;4.70;;;20.20;43.20;;;;;;5073249;28;20031;-60
2022/05/09 06:50:55;;;;;;;14.40;4.30;;;20.20;42.40;;;;;;5072034;28;20147;-60
2022/05/09 06:53:21;;;;;;;8.73;4.20;;;19.90;42.80;;;;;;5088495;28;20032;-59
2022/05/09 06:55:48;;;;;;;14.13;4.43;;;20.00;42.70;;;;;;5088590;28;20039;-58
2022/05/09 06:58:21;;;;;;;10.50;4.57;;;19.80;42.80;;;;;;5072716;28;20013;-59
2022/05/09 07:00:48;;;;;;;14.57;4.70;;;19.70;43.30;;;;;;5072741;28;20062;-59
2022/05/09 07:03:14;;;;;;;16.30;4.53;;;19.50;44.20;;;;;;5073092;28;20024;-60
2022/05/09 07:05:43;;;;;;;13.48;4.65;;;19.60;44.40;;;;;;5072813;28;20026;-60
2022/05/09 07:08:09;;;;;;;11.05;4.72;;;19.60;43.90;;;;;;5072667;28;20019;-60
2022/05/09 07:10:36;;;;;;;14.82;4.72;;;19.60;44.10;;;;;;5072581;28;20015;-60
2022/05/09 07:13:04;;;;;;;44.53;10.80;;;19.70;44.00;;;;;;5072590;28;20498;-59
2022/05/09 07:15:30;;;;;;;36.45;10.35;;;19.60;44.50;;;;;;5072137;28;20021;-59
2022/05/09 07:17:58;;;;;;;25.00;7.32;;;19.80;44.30;;;;;;5072082;28;20107;-60
2022/05/09 07:20:28;;;;;;;20.77;6.35;;;20.00;43.70;;;;;;5072410;28;20016;-59
2022/05/09 07:22:55;;;;;;;18.77;5.63;;;19.90;43.60;;;;;;5071077;28;20044;-59
2022/05/09 07:25:21;;;;;;;20.00;5.80;;;20.00;43.70;;;;;;5072657;28;20138;-59
2022/05/09 07:27:48;;;;;;;14.95;5.13;;;20.10;43.70;;;;;;5072441;28;20012;-59
2022/05/09 07:30:17;;;;;;;12.65;4.75;;;20.10;43.40;;;;;;5072289;28;20042;-60
2022/05/09 07:32:43;;;;;;;22.63;5.20;;;20.10;43.60;;;;;;5072468;28;20020;-59
2022/05/09 07:35:11;;;;;;;15.93;5.57;;;20.00;43.60;;;;;;5070936;28;20021;-59
2022/05/09 07:37:38;;;;;;;27.73;6.43;;;20.00;43.80;;;;;;5072366;28;20068;-59
2022/05/09 07:40:04;;;;;;;17.85;4.93;;;20.00;44.10;;;;;;5072692;28;20012;-59
2022/05/09 07:42:31;;;;;;;20.23;4.50;;;20.20;44.50;;;;;;5072266;28;20024;-59
2022/05/09 07:44:57;;;;;;;18.95;5.35;;;20.30;43.90;;;;;;5072525;28;20091;-59
2022/05/09 07:47:25;;;;;;;16.85;5.38;;;20.50;43.80;;;;;;5072221;28;20025;-60
2022/05/09 07:49:51;;;;;;;14.65;5.00;;;20.40;43.50;;;;;;5072018;28;20048;-59
2022/05/09 07:52:17;;;;;;;17.60;4.82;;;20.20;44.10;;;;;;5071937;28;20486;-59
2022/05/09 07:54:43;;;;;;;13.10;4.57;;;20.30;44.30;;;;;;5070578;28;20024;-59
2022/05/09 07:57:09;;;;;;;15.75;5.53;;;20.30;44.20;;;;;;5071774;28;20013;-59
2022/05/09 07:59:35;;;;;;;15.23;4.35;;;20.30;44.40;;;;;;5072011;28;20037;-59
2022/05/09 08:02:01;;;;;;;9.13;3.85;;;20.50;44.20;;;;;;5071320;28;20046;-59
2022/05/09 08:04:27;;;;;;;21.42;4.55;;;20.60;43.90;;;;;;5071962;28;20091;-58
2022/05/09 08:06:53;;;;;;;11.82;4.25;;;20.70;43.30;;;;;;5072156;28;20028;-59
2022/05/09 08:09:19;;;;;;;13.15;4.63;;;20.60;43.10;;;;;;5072184;28;20403;-59
2022/05/09 08:11:45;;;;;;;16.67;4.55;;;20.60;43.80;;;;;;5072215;28;20031;-59
2022/05/09 08:14:11;;;;;;;19.02;4.28;;;20.60;43.80;;;;;;5069540;28;20475;-58
2022/05/09 08:16:38;;;;;;;18.48;4.35;;;20.70;43.60;;;;;;5070627;28;20023;-59
2022/05/09 08:19:05;;;;;;;23.48;4.85;;;20.90;43.90;;;;;;5070620;28;20032;-58
2022/05/09 08:21:31;;;;;;;14.23;4.30;;;20.90;44.10;;;;;;5071139;28;20036;-60
2022/05/09 08:23:58;;;;;;;26.88;5.15;;;20.90;43.70;;;;;;5071668;28;20020;-60
2022/05/09 08:26:25;;;;;;;26.10;3.53;;;20.80;44.20;;;;;;5071642;28;20024;-59
2022/05/09 08:28:53;;;;;;;13.20;4.80;;;20.80;44.10;;;;;;5087244;28;20017;-60
2022/05/09 08:31:37;;;;;;;17.92;4.68;;;20.90;43.90;;;;;;5071562;28;20013;-59
2022/05/09 08:34:02;;;;;;;12.45;3.78;;;20.80;43.70;;;;;;5071122;28;20024;-57
2022/05/09 08:36:48;;;;;;;8.75;3.45;;;20.80;44.00;;;;;;5070443;28;20017;-58
2022/05/09 08:39:14;;;;;;;12.00;3.60;;;20.80;43.70;;;;;;5071639;28;20015;-58
2022/05/09 08:42:04;;;;;;;12.82;3.90;;;20.80;43.30;;;;;;5071531;28;20097;-58
2022/05/09 08:44:57;;;;;;;15.20;4.00;;;20.80;43.70;;;;;;5072159;28;20042;-58
2022/05/09 08:47:44;;;;;;;14.63;3.80;;;20.80;43.40;;;;;;5071455;28;20043;-58
2022/05/09 08:50:15;;;;;;;15.27;4.10;;;20.90;43.30;;;;;;5072006;28;20028;-52
2022/05/09 08:52:53;;;;;;;18.40;3.65;;;20.80;42.40;;;;;;5071388;28;20040;-58
2022/05/09 08:55:33;;;;;;;12.10;3.60;;;20.80;42.90;;;;;;5070053;28;20033;-56
2022/05/09 08:58:14;;;;;;;13.48;3.15;;;20.80;42.50;;;;;;5070087;28;20009;-56
2022/05/09 09:00:40;;;;;;;12.82;3.60;;;20.80;41.80;;;;;;5071258;28;20066;-50
2022/05/09 09:03:30;;;;;;;14.63;3.38;;;20.80;41.50;;;;;;5086752;28;20017;-54
2022/05/09 09:06:01;;;;;;;10.95;3.30;;;20.90;42.00;;;;;;5069583;28;20070;-57
2022/05/09 09:08:29;;;;;;;;;;;21.00;41.90;;;;;;5036362;28;20024;-53
2022/05/09 09:11:15;;;;;;;23.90;3.10;;;21.10;42.20;;;;;;5069383;28;19991;-53
2022/05/09 09:13:45;;;;;;;25.60;3.60;;;21.00;42.10;;;;;;5054433;28;20020;-47
2022/05/09 09:16:16;;;;;;;24.80;4.18;;;21.20;42.90;;;;;;5069672;28;20098;-47
2022/05/09 09:19:09;;;;;;;18.20;3.58;;;21.40;42.80;;;;;;5070417;28;20037;-48
2022/05/09 09:22:19;;;;;;;21.02;3.90;;;21.70;42.30;;;;;;5070126;28;20036;-48
2022/05/09 09:25:13;;;;;;;18.33;3.03;;;22.00;41.70;;;;;;5064808;28;20029;-47
2022/05/09 09:27:42;;;;;;;15.73;3.58;;;22.20;41.00;;;;;;5068733;28;20300;-49
2022/05/09 09:30:13;;;;;;;15.50;2.60;;;22.30;40.70;;;;;;5070495;28;20020;-52
2022/05/09 09:32:41;;;;;;;11.10;2.70;;;22.40;40.30;;;;;;5071022;28;20021;-46
2022/05/09 09:35:24;;;;;;;11.38;2.20;;;22.30;39.30;;;;;;5069485;28;20021;-47
2022/05/09 09:37:56;;;;;;;11.75;2.17;;;22.40;39.20;;;;;;5069494;28;20017;-45
2022/05/09 09:40:22;;;;;;;16.10;3.13;;;22.40;39.20;;;;;;5069494;28;20008;-45
2022/05/09 09:42:53;;;;;;;8.55;2.10;;;22.30;38.70;;;;;;5070823;28;20024;-44
2022/05/09 09:45:30;;;;;;;7.00;2.07;;;22.40;38.90;;;;;;5071070;28;20012;-46
2022/05/09 09:48:09;;;;;;;12.50;2.28;;;22.40;38.50;;;;;;5074584;28;20013;-45
2022/05/09 09:50:35;;;;;;;8.68;2.63;;;22.50;38.90;;;;;;5074480;28;20157;-46
2022/05/09 09:53:02;;;;;;;13.48;2.63;;;22.50;38.80;;;;;;5074150;28;20445;-45
2022/05/09 09:55:39;;;;;;;6.15;2.15;;;22.60;39.10;;;;;;5074241;28;20143;-47
2022/05/09 09:58:21;;;;;;;12.80;2.38;;;22.60;39.10;;;;;;5071929;28;20024;-49
2022/05/09 10:00:46;;;;;;;14.88;2.97;;;22.50;39.30;;;;;;5074039;28;20016;-45
2022/05/09 10:03:20;;;;;;;17.33;2.30;;;22.40;39.40;;;;;;5074674;28;20016;-51
2022/05/09 10:05:46;;;;;;;14.27;2.10;;;22.30;39.40;;;;;;5073280;28;20074;-47
2022/05/09 10:08:22;;;;;;;15.48;2.50;;;22.10;39.50;;;;;;5073477;28;20021;-49
2022/05/09 10:10:56;;;;;;;9.80;2.90;;;22.00;39.70;;;;;;5071609;28;20013;-52
2022/05/09 10:13:23;;;;;;;10.65;2.20;;;21.80;39.10;;;;;;5073015;28;20013;-51
2022/05/09 10:16:04;;;;;;;16.65;2.60;;;21.60;39.10;;;;;;5073425;28;20016;-54
2022/05/09 10:18:32;;;;;;;10.48;2.80;;;21.60;38.70;;;;;;5073766;28;20104;-51
2022/05/09 10:20:59;;;;;;;11.20;2.45;;;21.50;38.60;;;;;;5073793;28;20005;-52
2022/05/09 10:26:21;;;;;;;5.25;1.92;;;21.50;38.60;;;;;;5074169;28;20085;-51
2022/05/09 10:28:49;;;;;;;10.40;2.13;;;21.60;38.40;;;;;;5073854;28;20020;-54
2022/05/09 10:31:30;;;;;;;7.30;1.77;;;21.50;38.10;;;;;;5073048;28;20017;-51
2022/05/09 10:33:56;;;;;;;;;;;21.50;38.20;;;;;;5073316;28;20036;-50
2022/05/09 10:36:22;;;;;;;9.10;1.90;;;21.40;38.20;;;;;;5073907;28;19920;-48
2022/05/09 10:39:10;;;;;;;6.68;1.98;;;21.30;37.70;;;;;;5072373;28;20017;-55
2022/05/09 10:41:42;;;;;;;6.00;2.00;;;21.20;37.70;;;;;;5072236;28;20025;-51
2022/05/09 10:44:19;;;;;;;8.15;2.13;;;21.20;37.90;;;;;;5073695;28;20027;-54
2022/05/09 10:46:52;;;;;;;12.43;2.40;;;21.40;38.50;;;;;;5072556;28;20112;-53
2022/05/09 10:49:42;;;;;;;21.60;2.40;;;21.50;38.30;;;;;;5072378;28;20021;-57
2022/05/09 10:52:32;;;;;;;15.10;2.60;;;21.60;38.40;;;;;;5073090;28;20067;-50
2022/05/09 10:55:11;;;;;;;11.90;2.33;;;21.50;38.30;;;;;;5071673;28;20024;-51
2022/05/09 10:58:01;;;;;;;16.60;2.72;;;21.60;38.80;;;;;;5073011;28;20020;-54
2022/05/09 11:00:26;;;;;;;17.75;2.88;;;21.70;39.60;;;;;;5070581;28;20029;-53
2022/05/09 11:03:04;;;;;;;16.25;3.17;;;21.90;39.20;;;;;;5073447;28;20011;-52
2022/05/09 11:06:09;;;;;;;6.75;2.30;;;22.10;38.90;;;;;;5055341;28;20036;-52
2022/05/09 11:08:57;;;;;;;8.18;2.63;;;21.70;37.00;;;;;;5056940;28;20119;-52
2022/05/09 11:11:41;;;;;;;5.68;2.30;;;21.40;37.50;;;;;;5073386;28;20024;-53
2022/05/09 11:14:33;;;;;;;8.50;2.60;;;21.30;38.10;;;;;;5072754;28;20025;-53
2022/05/09 11:17:08;;;;;;;12.20;2.42;;;21.70;38.20;;;;;;5071680;28;20009;-50
2022/05/09 11:20:08;;;;;;;5.20;2.05;;;22.00;38.30;;;;;;5072600;28;20040;-55
2022/05/09 11:22:45;;;;;;;6.82;2.17;;;22.20;38.60;;;;;;5072198;28;20037;-55
2022/05/09 11:25:42;;;;;;;9.38;2.75;;;22.30;37.60;;;;;;5072257;28;20028;-54
2022/05/09 11:28:29;;;;;;;18.00;3.15;;;22.20;37.10;;;;;;5071198;28;20044;-48
2022/05/09 11:31:03;;;;;;;8.98;2.13;;;22.20;38.20;;;;;;5070672;28;20119;-49
2022/05/09 11:33:44;;;;;;;18.70;2.33;;;22.20;38.50;;;;;;5070782;28;20135;-53
2022/05/09 11:36:18;;;;;;;8.40;2.17;;;22.40;37.60;;;;;;5070506;28;20035;-59
2022/05/09 11:39:02;;;;;;;12.85;2.50;;;22.50;38.30;;;;;;5069229;28;20024;-58
2022/05/09 11:41:38;;;;;;;24.90;3.80;;;22.50;38.20;;;;;;5070671;28;20029;-54
2022/05/09 11:44:26;;;;;;;28.90;3.58;;;22.60;39.20;;;;;;5086992;28;20127;-55
2022/05/09 11:47:15;;;;;;;14.32;3.05;;;22.60;39.20;;;;;;5070279;28;20078;-55
2022/05/09 11:50:08;;;;;;;13.02;3.28;;;22.60;39.20;;;;;;5071799;28;20092;-53
2022/05/09 11:52:40;;;;;;;10.43;3.45;;;22.40;38.80;;;;;;5070441;28;20029;-55
2022/05/09 11:55:17;;;;;;;9.18;2.75;;;22.40;37.90;;;;;;5070322;28;20021;-58
2022/05/09 11:57:44;;;;;;;10.85;3.10;;;22.60;38.30;;;;;;5070773;28;20012;-57
2022/05/09 12:00:33;;;;;;;7.70;2.50;;;22.60;38.60;;;;;;5070524;28;20016;-56
2022/05/09 12:03:05;;;;;;;10.25;3.28;;;22.70;38.50;;;;;;5071368;28;20155;-57
2022/05/09 12:05:31;;;;;;;7.10;2.80;;;22.60;38.90;;;;;;5071057;28;20025;-57
2022/05/09 12:08:16;;;;;;;7.70;2.92;;;22.60;38.90;;;;;;5070783;28;20031;-57
2022/05/09 12:10:43;;;;;;;9.68;3.42;;;22.60;38.80;;;;;;5071114;28;20095;-49
2022/05/09 12:13:19;;;;;;;13.43;3.45;;;22.50;38.20;;;;;;5053399;28;20486;-50
2022/05/09 12:15:56;;;;;;;5.15;2.83;;;22.30;38.60;;;;;;5054151;28;20016;-55
2022/05/09 12:18:22;;;;;;;10.30;3.08;;;22.20;38.80;;;;;;5069760;28;20103;-55
2022/05/09 12:20:49;;;;;;;7.15;3.42;;;22.50;39.50;;;;;;5071145;28;20016;-56
2022/05/09 12:23:36;;;;;;;11.02;3.08;;;22.50;39.10;;;;;;5069821;28;20048;-54
2022/05/09 12:26:04;;;;;;;7.30;3.22;;;22.70;39.20;;;;;;5069762;28;20032;-53
2022/05/09 12:28:39;;;;;;;8.95;3.25;;;22.60;38.60;;;;;;5070642;28;20039;-55
2022/05/09 12:31:24;;;;;;;16.20;3.65;;;22.60;38.90;;;;;;5070537;28;20091;-56
2022/05/09 12:33:51;;;;;;;22.35;3.78;;;22.60;40.40;;;;;;5070948;28;20090;-57
2022/05/09 12:36:22;;;;;;;33.17;4.00;;;22.80;40.10;;;;;;5053290;28;20009;-54
2022/05/09 12:38:53;;;;;;;10.18;3.60;;;23.00;39.80;;;;;;5070232;28;20016;-57
2022/05/09 12:41:29;;;;;;;8.38;3.45;;;22.80;38.70;;;;;;5071476;28;20070;-57
2022/05/09 12:43:55;;;;;;;10.38;3.15;;;22.70;38.60;;;;;;5070303;28;20020;-57
2022/05/09 12:46:25;;;;;;;12.15;3.70;;;22.80;39.40;;;;;;5070370;28;20013;-53
2022/05/09 12:48:52;;;;;;;11.88;3.92;;;23.00;39.50;;;;;;5071487;28;20028;-60
2022/05/09 12:51:18;;;;;;;6.78;4.07;;;22.80;40.10;;;;;;5070639;28;20103;-57
2022/05/09 12:53:44;;;;;;;13.77;3.83;;;22.90;39.40;;;;;;5071660;28;20109;-59
2022/05/09 12:56:21;;;;;;;9.27;3.58;;;22.80;40.20;;;;;;5071814;28;20032;-58
2022/05/09 12:59:08;;;;;;;10.43;3.60;;;22.80;40.40;;;;;;5071740;28;20084;-59
2022/05/09 13:01:34;;;;;;;7.13;3.97;;;22.90;39.80;;;;;;5069932;28;20051;-59
2022/05/09 13:04:05;;;;;;;9.20;4.00;;;23.00;38.90;;;;;;5071447;28;20088;-60
2022/05/09 13:06:34;;;;;;;9.00;4.22;;;23.00;38.80;;;;;;5070130;28;20016;-57
2022/05/09 13:09:25;;;;;;;10.10;3.90;;;23.00;39.40;;;;;;5071219;28;20093;-58